sensor_id;sensor_type;location;lat;lon;timestamp;pressure;altitude;pressure_sealevel;temperature;humidity
74637;BME280;63141;54.616;39.754;2022-12-18T00:01:41;99245.38;;;23.45;32.60
74637;BME280;63141;54.616;39.754;2022-12-18T00:04:42;99221.38;;;23.47;32.53
74637;BME280;63141;54.616;39.754;2022-12-18T00:07:46;99217.03;;;23.46;32.53
74637;BME280;63141;54.616;39.754;2022-12-18T00:10:48;99218.72;;;23.47;32.75
74637;BME280;63141;54.616;39.754;2022-12-18T00:13:50;99212.66;;;23.45;32.81
74637;BME280;63141;54.616;39.754;2022-12-18T00:16:51;99207.31;;;23.45;32.62
74637;BME280;63141;54.616;39.754;2022-12-18T00:19:53;99189.69;;;23.44;32.70
74637;BME280;63141;54.616;39.754;2022-12-18T00:22:54;99183.50;;;23.43;32.71
74637;BME280;63141;54.616;39.754;2022-12-18T00:26:04;99174.66;;;23.42;32.82
74637;BME280;63141;54.616;39.754;2022-12-18T00:29:10;99163.19;;;23.42;32.72
74637;BME280;63141;54.616;39.754;2022-12-18T00:32:11;99165.84;;;23.42;32.75
74637;BME280;63141;54.616;39.754;2022-12-18T00:35:12;99153.41;;;23.42;32.88
74637;BME280;63141;54.616;39.754;2022-12-18T00:38:14;99141.84;;;23.44;32.63
74637;BME280;63141;54.616;39.754;2022-12-18T00:41:16;99136.53;;;23.44;32.74
74637;BME280;63141;54.616;39.754;2022-12-18T00:44:39;99125.91;;;23.44;32.76
74637;BME280;63141;54.616;39.754;2022-12-18T00:47:41;99119.72;;;23.43;32.88
74637;BME280;63141;54.616;39.754;2022-12-18T00:50:42;99116.22;;;23.42;32.71
74637;BME280;63141;54.616;39.754;2022-12-18T00:53:44;99113.56;;;23.42;33.03
74637;BME280;63141;54.616;39.754;2022-12-18T00:56:45;99106.53;;;23.41;32.85
74637;BME280;63141;54.616;39.754;2022-12-18T00:59:47;99097.59;;;23.42;32.79
74637;BME280;63141;54.616;39.754;2022-12-18T01:02:50;99092.28;;;23.42;33.11
74637;BME280;63141;54.616;39.754;2022-12-18T01:05:52;99092.28;;;23.42;32.99
74637;BME280;63141;54.616;39.754;2022-12-18T01:08:57;99085.28;;;23.41;32.66
74637;BME280;63141;54.616;39.754;2022-12-18T01:11:59;99090.59;;;23.41;32.82
74637;BME280;63141;54.616;39.754;2022-12-18T01:15:00;99090.59;;;23.41;32.52
74637;BME280;63141;54.616;39.754;2022-12-18T01:18:02;99083.47;;;23.42;32.52
74637;BME280;63141;54.616;39.754;2022-12-18T01:21:08;99086.22;;;23.40;32.62
74637;BME280;63141;54.616;39.754;2022-12-18T01:24:12;99073.91;;;23.39;32.72
74637;BME280;63141;54.616;39.754;2022-12-18T01:27:13;99079.22;;;23.39;32.79
74637;BME280;63141;54.616;39.754;2022-12-18T01:30:17;99069.50;;;23.38;32.87
74637;BME280;63141;54.616;39.754;2022-12-18T01:33:21;99060.78;;;23.36;32.99
74637;BME280;63141;54.616;39.754;2022-12-18T01:36:29;99039.53;;;23.36;32.93
74637;BME280;63141;54.616;39.754;2022-12-18T01:39:30;99038.69;;;23.36;32.74
74637;BME280;63141;54.616;39.754;2022-12-18T01:42:32;99023.59;;;23.36;32.66
74637;BME280;63141;54.616;39.754;2022-12-18T01:45:34;99016.56;;;23.35;32.76
74637;BME280;63141;54.616;39.754;2022-12-18T01:48:36;99010.28;;;23.36;32.86
74637;BME280;63141;54.616;39.754;2022-12-18T01:51:38;99003.28;;;23.35;32.57
74637;BME280;63141;54.616;39.754;2022-12-18T01:54:40;98994.47;;;23.35;32.73
74637;BME280;63141;54.616;39.754;2022-12-18T01:57:41;99002.31;;;23.36;32.77
74637;BME280;63141;54.616;39.754;2022-12-18T02:00:43;98995.31;;;23.35;32.76
74637;BME280;63141;54.616;39.754;2022-12-18T02:03:50;98986.38;;;23.36;32.73
74637;BME280;63141;54.616;39.754;2022-12-18T02:07:07;98981.94;;;23.37;32.99
74637;BME280;63141;54.616;39.754;2022-12-18T02:10:24;98979.19;;;23.38;32.98
74637;BME280;63141;54.616;39.754;2022-12-18T02:13:34;98970.44;;;23.36;33.04
74637;BME280;63141;54.616;39.754;2022-12-18T02:26:59;98956.22;;;23.37;32.83
74637;BME280;63141;54.616;39.754;2022-12-18T02:30:05;98960.69;;;23.37;32.96
74637;BME280;63141;54.616;39.754;2022-12-18T02:33:08;98952.59;;;23.38;33.04
74637;BME280;63141;54.616;39.754;2022-12-18T02:36:13;98928.81;;;23.37;32.94
74637;BME280;63141;54.616;39.754;2022-12-18T02:39:19;98942.72;;;23.40;33.09
74637;BME280;63141;54.616;39.754;2022-12-18T02:42:32;98943.59;;;23.41;32.99
74637;BME280;63141;54.616;39.754;2022-12-18T02:45:35;98933.06;;;23.39;33.23
74637;BME280;63141;54.616;39.754;2022-12-18T02:48:37;98939.22;;;23.40;33.11
74637;BME280;63141;54.616;39.754;2022-12-18T02:58:32;98939.22;;;23.40;32.77
74637;BME280;63141;54.616;39.754;2022-12-18T03:05:14;98931.34;;;23.38;33.05
74637;BME280;63141;54.616;39.754;2022-12-18T03:08:22;98925.00;;;23.41;33.18
74637;BME280;63141;54.616;39.754;2022-12-18T03:11:25;98924.34;;;23.37;33.19
74637;BME280;63141;54.616;39.754;2022-12-18T03:15:07;98912.56;;;23.41;33.06
74637;BME280;63141;54.616;39.754;2022-12-18T03:18:19;98919.69;;;23.41;33.16
74637;BME280;63141;54.616;39.754;2022-12-18T03:21:28;98924.13;;;23.40;33.24
74637;BME280;63141;54.616;39.754;2022-12-18T03:24:33;98925.84;;;23.41;33.21
74637;BME280;63141;54.616;39.754;2022-12-18T03:27:37;98926.69;;;23.42;33.39
74637;BME280;63141;54.616;39.754;2022-12-18T03:30:46;98924.13;;;23.40;33.58
74637;BME280;63141;54.616;39.754;2022-12-18T03:33:56;98936.50;;;23.41;34.21
74637;BME280;63141;54.616;39.754;2022-12-18T03:37:06;98923.00;;;23.45;34.51
74637;BME280;63141;54.616;39.754;2022-12-18T03:40:09;98917.28;;;23.51;34.72
74637;BME280;63141;54.616;39.754;2022-12-18T03:43:26;98919.13;;;23.63;34.50
74637;BME280;63141;54.616;39.754;2022-12-18T03:46:47;98924.63;;;23.74;34.74
74637;BME280;63141;54.616;39.754;2022-12-18T03:53:40;98937.38;;;23.96;34.06
74637;BME280;63141;54.616;39.754;2022-12-18T03:56:51;98924.31;;;24.06;33.57
74637;BME280;63141;54.616;39.754;2022-12-18T04:00:20;98921.47;;;24.22;33.64
74637;BME280;63141;54.616;39.754;2022-12-18T04:03:34;98927.75;;;24.34;33.62
74637;BME280;63141;54.616;39.754;2022-12-18T04:06:43;98921.72;;;24.44;33.35
74637;BME280;63141;54.616;39.754;2022-12-18T04:09:49;98913.00;;;24.55;32.89
74637;BME280;63141;54.616;39.754;2022-12-18T04:13:21;98917.69;;;24.64;32.88
74637;BME280;63141;54.616;39.754;2022-12-18T04:16:26;98908.53;;;24.69;32.74
74637;BME280;63141;54.616;39.754;2022-12-18T04:19:34;98914.28;;;24.75;32.82
74637;BME280;63141;54.616;39.754;2022-12-18T04:22:38;98919.03;;;24.83;32.53
74637;BME280;63141;54.616;39.754;2022-12-18T04:25:40;98917.03;;;24.86;32.36
74637;BME280;63141;54.616;39.754;2022-12-18T04:28:50;98923.19;;;24.87;32.07
74637;BME280;63141;54.616;39.754;2022-12-18T04:31:52;98916.81;;;24.90;31.84
74637;BME280;63141;54.616;39.754;2022-12-18T04:34:54;98917.44;;;24.93;31.77
74637;BME280;63141;54.616;39.754;2022-12-18T04:37:58;98925.03;;;24.99;31.53
74637;BME280;63141;54.616;39.754;2022-12-18T04:41:03;98944.09;;;25.06;31.71
74637;BME280;63141;54.616;39.754;2022-12-18T04:44:04;98934.59;;;25.02;31.59
74637;BME280;63141;54.616;39.754;2022-12-18T04:47:06;98936.84;;;24.95;31.19
74637;BME280;63141;54.616;39.754;2022-12-18T04:50:08;98933.66;;;24.90;30.99
74637;BME280;63141;54.616;39.754;2022-12-18T04:53:10;98942.16;;;24.82;31.38
74637;BME280;63141;54.616;39.754;2022-12-18T04:56:13;98949.09;;;24.72;31.18
74637;BME280;63141;54.616;39.754;2022-12-18T04:59:15;98951.56;;;24.62;31.37
74637;BME280;63141;54.616;39.754;2022-12-18T05:02:19;98953.03;;;24.54;31.48
74637;BME280;63141;54.616;39.754;2022-12-18T05:05:20;98961.50;;;24.46;31.44
74637;BME280;63141;54.616;39.754;2022-12-18T05:08:24;98967.25;;;24.40;31.59
74637;BME280;63141;54.616;39.754;2022-12-18T05:11:25;98973.00;;;24.34;31.68
74637;BME280;63141;54.616;39.754;2022-12-18T05:14:27;98979.47;;;24.30;31.31
74637;BME280;63141;54.616;39.754;2022-12-18T05:17:30;98987.66;;;24.27;31.57
74637;BME280;63141;54.616;39.754;2022-12-18T05:20:31;98999.56;;;24.21;31.52
74637;BME280;63141;54.616;39.754;2022-12-18T05:23:33;99004.25;;;24.17;31.68
74637;BME280;63141;54.616;39.754;2022-12-18T05:26:36;99009.66;;;24.16;31.22
74637;BME280;63141;54.616;39.754;2022-12-18T05:29:37;99018.69;;;24.13;31.64
74637;BME280;63141;54.616;39.754;2022-12-18T05:32:38;99016.25;;;24.10;31.45
74637;BME280;63141;54.616;39.754;2022-12-18T05:35:40;99017.31;;;24.08;31.43
74637;BME280;63141;54.616;39.754;2022-12-18T05:38:41;99031.63;;;24.05;31.51
74637;BME280;63141;54.616;39.754;2022-12-18T05:41:43;99042.47;;;24.02;31.45
74637;BME280;63141;54.616;39.754;2022-12-18T05:44:44;99051.59;;;23.98;31.49
74637;BME280;63141;54.616;39.754;2022-12-18T05:47:45;99062.47;;;23.95;31.70
74637;BME280;63141;54.616;39.754;2022-12-18T05:50:48;99069.88;;;23.90;31.65
74637;BME280;63141;54.616;39.754;2022-12-18T05:53:49;99077.94;;;23.88;31.54
74637;BME280;63141;54.616;39.754;2022-12-18T05:56:51;99083.47;;;23.85;31.53
74637;BME280;63141;54.616;39.754;2022-12-18T05:59:52;99087.28;;;23.81;31.82
74637;BME280;63141;54.616;39.754;2022-12-18T06:02:56;99084.69;;;23.79;31.49
74637;BME280;63141;54.616;39.754;2022-12-18T06:05:58;99108.75;;;23.78;31.71
74637;BME280;63141;54.616;39.754;2022-12-18T06:09:02;99108.06;;;23.74;31.42
74637;BME280;63141;54.616;39.754;2022-12-18T06:12:09;99114.31;;;23.73;31.53
74637;BME280;63141;54.616;39.754;2022-12-18T06:15:11;99109.00;;;23.73;31.46
74637;BME280;63141;54.616;39.754;2022-12-18T06:18:13;99129.50;;;23.71;31.29
74637;BME280;63141;54.616;39.754;2022-12-18T06:21:14;99148.28;;;23.68;31.49
74637;BME280;63141;54.616;39.754;2022-12-18T06:24:15;99160.81;;;23.66;31.68
74637;BME280;63141;54.616;39.754;2022-12-18T06:27:17;99165.41;;;23.64;31.41
74637;BME280;63141;54.616;39.754;2022-12-18T06:30:19;99193.88;;;23.62;31.36
74637;BME280;63141;54.616;39.754;2022-12-18T06:33:20;99195.78;;;23.60;31.62
74637;BME280;63141;54.616;39.754;2022-12-18T06:36:22;99215.31;;;23.59;31.39
74637;BME280;63141;54.616;39.754;2022-12-18T06:39:23;99209.22;;;23.57;31.32
74637;BME280;63141;54.616;39.754;2022-12-18T06:42:25;99222.53;;;23.57;31.32
74637;BME280;63141;54.616;39.754;2022-12-18T06:45:26;99233.28;;;23.55;31.33
74637;BME280;63141;54.616;39.754;2022-12-18T06:48:27;99236.97;;;23.53;31.17
74637;BME280;63141;54.616;39.754;2022-12-18T06:51:29;99240.56;;;23.52;31.20
74637;BME280;63141;54.616;39.754;2022-12-18T06:54:30;99251.19;;;23.52;31.18
74637;BME280;63141;54.616;39.754;2022-12-18T06:57:32;99261.81;;;23.52;31.21
74637;BME280;63141;54.616;39.754;2022-12-18T07:00:33;99265.44;;;23.51;31.09
74637;BME280;63141;54.616;39.754;2022-12-18T07:03:40;99264.59;;;23.50;31.25
74637;BME280;63141;54.616;39.754;2022-12-18T07:06:42;99277.88;;;23.50;31.17
74637;BME280;63141;54.616;39.754;2022-12-18T07:09:43;99288.59;;;23.49;31.15
74637;BME280;63141;54.616;39.754;2022-12-18T07:12:44;99308.13;;;23.48;31.34
74637;BME280;63141;54.616;39.754;2022-12-18T07:15:46;99312.69;;;23.46;30.90
74637;BME280;63141;54.616;39.754;2022-12-18T07:18:47;99318.94;;;23.45;31.19
74637;BME280;63141;54.616;39.754;2022-12-18T07:21:50;99321.59;;;23.45;31.28
74637;BME280;63141;54.616;39.754;2022-12-18T07:24:51;99321.69;;;23.43;31.16
74637;BME280;63141;54.616;39.754;2022-12-18T07:27:53;99322.56;;;23.44;31.12
74637;BME280;63141;54.616;39.754;2022-12-18T07:30:55;99336.78;;;23.42;30.99
74637;BME280;63141;54.616;39.754;2022-12-18T07:33:56;99344.84;;;23.41;30.57
74637;BME280;63141;54.616;39.754;2022-12-18T07:36:58;99349.47;;;23.37;30.02
74637;BME280;63141;54.616;39.754;2022-12-18T07:39:59;99354.09;;;23.34;29.28
74637;BME280;63141;54.616;39.754;2022-12-18T07:43:00;99360.44;;;23.31;28.97
74637;BME280;63141;54.616;39.754;2022-12-18T07:46:02;99376.50;;;23.30;28.17
74637;BME280;63141;54.616;39.754;2022-12-18T07:49:03;99384.63;;;23.27;27.70
74637;BME280;63141;54.616;39.754;2022-12-18T07:52:05;99406.06;;;23.24;27.42
74637;BME280;63141;54.616;39.754;2022-12-18T07:55:06;99412.41;;;23.21;27.35
74637;BME280;63141;54.616;39.754;2022-12-18T07:58:08;99398.28;;;23.20;27.19
74637;BME280;63141;54.616;39.754;2022-12-18T08:01:11;99407.09;;;23.21;27.34
74637;BME280;63141;54.616;39.754;2022-12-18T08:04:18;99413.19;;;23.23;27.45
74637;BME280;63141;54.616;39.754;2022-12-18T08:07:19;99421.91;;;23.25;27.48
74637;BME280;63141;54.616;39.754;2022-12-18T08:10:21;99427.97;;;23.27;27.41
74637;BME280;63141;54.616;39.754;2022-12-18T08:13:22;99441.19;;;23.29;27.90
74637;BME280;63141;54.616;39.754;2022-12-18T08:16:24;99452.66;;;23.29;28.27
74637;BME280;63141;54.616;39.754;2022-12-18T08:19:25;99450.78;;;23.31;28.65
74637;BME280;63141;54.616;39.754;2022-12-18T08:22:27;99460.50;;;23.32;28.85
74637;BME280;63141;54.616;39.754;2022-12-18T08:25:28;99463.16;;;23.32;28.84
74637;BME280;63141;54.616;39.754;2022-12-18T08:28:29;99478.97;;;23.34;29.26
74637;BME280;63141;54.616;39.754;2022-12-18T08:31:31;99470.16;;;23.33;29.50
74637;BME280;63141;54.616;39.754;2022-12-18T08:34:32;99486.88;;;23.35;29.85
74637;BME280;63141;54.616;39.754;2022-12-18T08:37:34;99488.56;;;23.36;29.99
74637;BME280;63141;54.616;39.754;2022-12-18T08:40:35;99501.00;;;23.36;30.03
74637;BME280;63141;54.616;39.754;2022-12-18T08:43:37;99507.19;;;23.36;30.55
74637;BME280;63141;54.616;39.754;2022-12-18T08:46:56;99514.22;;;23.37;30.82
74637;BME280;63141;54.616;39.754;2022-12-18T08:49:58;99524.84;;;23.37;30.98
74637;BME280;63141;54.616;39.754;2022-12-18T08:53:00;99530.09;;;23.39;30.96
74637;BME280;63141;54.616;39.754;2022-12-18T08:56:02;99536.34;;;23.38;31.67
74637;BME280;63141;54.616;39.754;2022-12-18T08:59:04;99554.00;;;23.39;31.83
74637;BME280;63141;54.616;39.754;2022-12-18T09:02:10;99545.50;;;23.32;30.43
74637;BME280;63141;54.616;39.754;2022-12-18T09:05:11;99538.91;;;23.24;30.46
74637;BME280;63141;54.616;39.754;2022-12-18T09:08:15;99536.06;;;23.27;30.04
74637;BME280;63141;54.616;39.754;2022-12-18T09:11:23;99527.41;;;23.23;30.71
74637;BME280;63141;54.616;39.754;2022-12-18T09:14:24;99533.66;;;23.22;30.18
74637;BME280;63141;54.616;39.754;2022-12-18T09:17:26;99542.41;;;23.24;30.05
74637;BME280;63141;54.616;39.754;2022-12-18T09:20:27;99546.88;;;23.24;29.94
74637;BME280;63141;54.616;39.754;2022-12-18T09:23:30;99553.81;;;23.26;29.96
74637;BME280;63141;54.616;39.754;2022-12-18T09:26:32;99558.28;;;23.26;30.05
74637;BME280;63141;54.616;39.754;2022-12-18T09:29:33;99564.44;;;23.26;30.03
74637;BME280;63141;54.616;39.754;2022-12-18T09:32:35;99579.53;;;23.26;30.04
74637;BME280;63141;54.616;39.754;2022-12-18T09:35:38;99594.50;;;23.27;29.92
74637;BME280;63141;54.616;39.754;2022-12-18T09:38:40;99607.78;;;23.27;30.08
74637;BME280;63141;54.616;39.754;2022-12-18T09:41:50;99608.66;;;23.27;30.16
74637;BME280;63141;54.616;39.754;2022-12-18T09:44:54;99606.88;;;23.28;29.92
74637;BME280;63141;54.616;39.754;2022-12-18T09:47:56;99618.44;;;23.27;30.04
74637;BME280;63141;54.616;39.754;2022-12-18T09:51:02;99622.88;;;23.26;30.17
74637;BME280;63141;54.616;39.754;2022-12-18T09:54:15;99632.66;;;23.26;30.17
74637;BME280;63141;54.616;39.754;2022-12-18T09:57:22;99621.25;;;23.24;30.29
74637;BME280;63141;54.616;39.754;2022-12-18T10:00:25;99628.38;;;23.23;29.98
74637;BME280;63141;54.616;39.754;2022-12-18T10:03:31;99645.16;;;23.24;30.14
74637;BME280;63141;54.616;39.754;2022-12-18T10:13:27;99648.66;;;23.24;30.17
74637;BME280;63141;54.616;39.754;2022-12-18T10:16:40;99661.97;;;23.24;30.18
74637;BME280;63141;54.616;39.754;2022-12-18T10:20:00;99669.94;;;23.24;30.10
74637;BME280;63141;54.616;39.754;2022-12-18T10:23:21;99676.09;;;23.25;30.21
74637;BME280;63141;54.616;39.754;2022-12-18T10:26:27;99680.56;;;23.24;30.19
74637;BME280;63141;54.616;39.754;2022-12-18T10:29:28;99677.91;;;23.24;30.07
74637;BME280;63141;54.616;39.754;2022-12-18T10:32:30;99680.56;;;23.24;30.32
74637;BME280;63141;54.616;39.754;2022-12-18T10:35:32;99687.69;;;23.24;30.31
74637;BME280;63141;54.616;39.754;2022-12-18T10:38:33;99697.44;;;23.23;30.36
74637;BME280;63141;54.616;39.754;2022-12-18T10:41:35;99712.44;;;23.24;30.27
74637;BME280;63141;54.616;39.754;2022-12-18T10:44:36;99708.06;;;23.23;30.11
74637;BME280;63141;54.616;39.754;2022-12-18T10:47:49;99725.72;;;23.24;30.19
74637;BME280;63141;54.616;39.754;2022-12-18T10:50:51;99727.53;;;23.24;30.05
74637;BME280;63141;54.616;39.754;2022-12-18T10:53:59;99738.94;;;23.26;30.31
74637;BME280;63141;54.616;39.754;2022-12-18T10:57:16;99741.59;;;23.26;30.17
74637;BME280;63141;54.616;39.754;2022-12-18T11:10:03;99736.19;;;23.27;30.31
74637;BME280;63141;54.616;39.754;2022-12-18T11:13:23;99737.06;;;23.28;30.85
74637;BME280;63141;54.616;39.754;2022-12-18T11:16:26;99735.34;;;23.27;30.52
74637;BME280;63141;54.616;39.754;2022-12-18T11:22:35;99746.81;;;23.27;30.65
74637;BME280;63141;54.616;39.754;2022-12-18T11:25:37;99753.88;;;23.28;30.77
74637;BME280;63141;54.616;39.754;2022-12-18T11:29:08;99767.09;;;23.30;30.82
74637;BME280;63141;54.616;39.754;2022-12-18T11:35:54;99778.56;;;23.30;30.98
74637;BME280;63141;54.616;39.754;2022-12-18T11:38:59;99775.97;;;23.29;30.89
74637;BME280;63141;54.616;39.754;2022-12-18T11:45:34;99789.31;;;23.27;31.03
74637;BME280;63141;54.616;39.754;2022-12-18T11:49:08;99802.53;;;23.29;31.09
74637;BME280;63141;54.616;39.754;2022-12-18T11:52:23;99812.31;;;23.28;31.11
74637;BME280;63141;54.616;39.754;2022-12-18T12:06:14;99846.06;;;23.26;30.93
74637;BME280;63141;54.616;39.754;2022-12-18T12:09:29;99852.25;;;23.27;30.90
74637;BME280;63141;54.616;39.754;2022-12-18T12:16:10;99862.88;;;23.27;30.99
74637;BME280;63141;54.616;39.754;2022-12-18T12:19:48;99868.19;;;23.27;31.05
74637;BME280;63141;54.616;39.754;2022-12-18T12:23:09;99872.66;;;23.26;30.84
74637;BME280;63141;54.616;39.754;2022-12-18T12:26:36;99867.34;;;23.26;30.75
74637;BME280;63141;54.616;39.754;2022-12-18T12:29:46;99870.00;;;23.26;30.85
74637;BME280;63141;54.616;39.754;2022-12-18T12:39:25;99883.28;;;23.26;30.51
74637;BME280;63141;54.616;39.754;2022-12-18T12:42:39;99888.59;;;23.26;30.37
74637;BME280;63141;54.616;39.754;2022-12-18T12:46:10;99890.47;;;23.24;30.50
74637;BME280;63141;54.616;39.754;2022-12-18T12:49:15;99894.06;;;23.23;30.49
74637;BME280;63141;54.616;39.754;2022-12-18T12:52:50;99889.59;;;23.24;30.46
74637;BME280;63141;54.616;39.754;2022-12-18T12:55:52;99890.47;;;23.24;30.26
74637;BME280;63141;54.616;39.754;2022-12-18T12:59:10;99901.09;;;23.24;30.59
74637;BME280;63141;54.616;39.754;2022-12-18T13:02:33;99908.19;;;23.24;30.47
74637;BME280;63141;54.616;39.754;2022-12-18T13:05:46;99909.06;;;23.24;30.43
74637;BME280;63141;54.616;39.754;2022-12-18T13:08:59;99917.03;;;23.24;30.31
74637;BME280;63141;54.616;39.754;2022-12-18T13:12:04;99925.84;;;23.25;30.36
74637;BME280;63141;54.616;39.754;2022-12-18T13:18:38;99939.13;;;23.25;30.25
74637;BME280;63141;54.616;39.754;2022-12-18T13:21:39;99950.66;;;23.25;30.36
74637;BME280;63141;54.616;39.754;2022-12-18T13:24:40;99955.88;;;23.27;30.33
74637;BME280;63141;54.616;39.754;2022-12-18T13:30:49;99979.78;;;23.27;30.29
74637;BME280;63141;54.616;39.754;2022-12-18T13:34:16;99975.31;;;23.27;30.36
74637;BME280;63141;54.616;39.754;2022-12-18T13:37:43;99982.44;;;23.27;30.39
74637;BME280;63141;54.616;39.754;2022-12-18T13:44:10;100003.63;;;23.28;30.32
74637;BME280;63141;54.616;39.754;2022-12-18T13:47:32;100003.63;;;23.28;30.35
74637;BME280;63141;54.616;39.754;2022-12-18T13:50:35;100013.31;;;23.29;30.48
74637;BME280;63141;54.616;39.754;2022-12-18T13:53:42;100010.66;;;23.29;30.64
74637;BME280;63141;54.616;39.754;2022-12-18T13:56:47;100008.94;;;23.28;30.58
74637;BME280;63141;54.616;39.754;2022-12-18T13:59:49;100011.56;;;23.30;30.57
74637;BME280;63141;54.616;39.754;2022-12-18T14:02:51;100020.38;;;23.30;30.62
74637;BME280;63141;54.616;39.754;2022-12-18T14:06:04;100028.34;;;23.30;30.75
74637;BME280;63141;54.616;39.754;2022-12-18T14:09:11;100037.22;;;23.29;30.69
74637;BME280;63141;54.616;39.754;2022-12-18T14:12:21;100041.69;;;23.29;30.77
74637;BME280;63141;54.616;39.754;2022-12-18T14:15:44;100056.78;;;23.28;30.83
74637;BME280;63141;54.616;39.754;2022-12-18T14:18:54;100054.97;;;23.29;30.64
74637;BME280;63141;54.616;39.754;2022-12-18T14:21:56;100069.13;;;23.29;30.65
74637;BME280;63141;54.616;39.754;2022-12-18T14:28:14;100083.34;;;23.28;30.54
74637;BME280;63141;54.616;39.754;2022-12-18T14:31:24;100091.28;;;23.30;30.78
74637;BME280;63141;54.616;39.754;2022-12-18T14:34:26;100090.38;;;23.29;30.62
74637;BME280;63141;54.616;39.754;2022-12-18T14:37:28;100099.31;;;23.28;30.69
74637;BME280;63141;54.616;39.754;2022-12-18T14:40:29;100099.31;;;23.28;30.59
74637;BME280;63141;54.616;39.754;2022-12-18T14:43:36;100109.94;;;23.28;30.46
74637;BME280;63141;54.616;39.754;2022-12-18T14:46:39;100104.63;;;23.28;30.51
74637;BME280;63141;54.616;39.754;2022-12-18T14:49:44;100107.28;;;23.28;30.57
74637;BME280;63141;54.616;39.754;2022-12-18T14:52:45;100106.31;;;23.29;30.58
74637;BME280;63141;54.616;39.754;2022-12-18T14:55:47;100104.47;;;23.31;32.46
74637;BME280;63141;54.616;39.754;2022-12-18T15:02:25;100112.53;;;23.49;32.50
74637;BME280;63141;54.616;39.754;2022-12-18T15:05:31;100121.91;;;23.57;32.71
74637;BME280;63141;54.616;39.754;2022-12-18T15:08:36;100115.13;;;23.69;32.87
74637;BME280;63141;54.616;39.754;2022-12-18T15:14:41;100128.22;;;23.93;32.31
74637;BME280;63141;54.616;39.754;2022-12-18T15:17:43;100138.44;;;24.02;32.34
74637;BME280;63141;54.616;39.754;2022-12-18T15:20:54;100144.91;;;24.15;32.16
74637;BME280;63141;54.616;39.754;2022-12-18T15:24:00;100154.94;;;24.28;31.94
74637;BME280;63141;54.616;39.754;2022-12-18T15:27:01;100151.91;;;24.35;31.82
74637;BME280;63141;54.616;39.754;2022-12-18T15:33:23;100157.44;;;24.50;31.69
74637;BME280;63141;54.616;39.754;2022-12-18T15:36:29;100163.63;;;24.50;31.74
74637;BME280;63141;54.616;39.754;2022-12-18T15:39:31;100165.22;;;24.54;31.65
74637;BME280;63141;54.616;39.754;2022-12-18T15:42:32;100170.25;;;24.60;31.50
74637;BME280;63141;54.616;39.754;2022-12-18T15:45:52;100176.19;;;24.65;31.43
74637;BME280;63141;54.616;39.754;2022-12-18T15:48:55;100174.31;;;24.67;31.49
74637;BME280;63141;54.616;39.754;2022-12-18T15:51:58;100172.44;;;24.70;31.38
74637;BME280;63141;54.616;39.754;2022-12-18T15:55:00;100171.41;;;24.72;30.93
74637;BME280;63141;54.616;39.754;2022-12-18T15:58:20;100182.75;;;24.76;31.25
74637;BME280;63141;54.616;39.754;2022-12-18T16:01:27;100186.22;;;24.78;30.98
74637;BME280;63141;54.616;39.754;2022-12-18T16:04:34;100187.78;;;24.82;30.85
74637;BME280;63141;54.616;39.754;2022-12-18T16:07:36;100185.91;;;24.84;30.89
74637;BME280;63141;54.616;39.754;2022-12-18T16:10:37;100192.16;;;24.83;31.27
74637;BME280;63141;54.616;39.754;2022-12-18T16:13:39;100202.59;;;24.87;31.09
74637;BME280;63141;54.616;39.754;2022-12-18T16:16:40;100202.44;;;24.91;30.95
74637;BME280;63141;54.616;39.754;2022-12-18T16:19:42;100205.91;;;24.93;30.90
74637;BME280;63141;54.616;39.754;2022-12-18T16:22:45;100219.91;;;24.96;30.70
74637;BME280;63141;54.616;39.754;2022-12-18T16:25:47;100218.09;;;24.97;30.65
74637;BME280;63141;54.616;39.754;2022-12-18T16:28:48;100215.69;;;24.92;30.16
74637;BME280;63141;54.616;39.754;2022-12-18T16:31:50;100233.56;;;24.90;30.34
74637;BME280;63141;54.616;39.754;2022-12-18T16:34:52;100240.78;;;24.88;30.44
74637;BME280;63141;54.616;39.754;2022-12-18T16:37:53;100247.81;;;24.89;30.42
74637;BME280;63141;54.616;39.754;2022-12-18T16:40:55;100251.25;;;24.91;30.17
74637;BME280;63141;54.616;39.754;2022-12-18T16:44:15;100255.63;;;24.92;29.84
74637;BME280;63141;54.616;39.754;2022-12-18T16:47:17;100254.88;;;24.90;30.11
74637;BME280;63141;54.616;39.754;2022-12-18T16:50:18;100270.69;;;24.93;29.84
74637;BME280;63141;54.616;39.754;2022-12-18T16:53:20;100277.63;;;24.97;30.47
74637;BME280;63141;54.616;39.754;2022-12-18T16:56:22;100287.25;;;25.00;29.74
74637;BME280;63141;54.616;39.754;2022-12-18T16:59:23;100283.56;;;25.02;29.92
74637;BME280;63141;54.616;39.754;2022-12-18T17:02:29;100287.81;;;25.06;29.39
74637;BME280;63141;54.616;39.754;2022-12-18T17:05:32;100294.00;;;25.07;29.49
74637;BME280;63141;54.616;39.754;2022-12-18T17:08:36;100300.97;;;25.09;29.39
74637;BME280;63141;54.616;39.754;2022-12-18T17:11:37;100309.81;;;25.10;29.37
74637;BME280;63141;54.616;39.754;2022-12-18T17:14:39;100307.03;;;25.13;29.28
74637;BME280;63141;54.616;39.754;2022-12-18T17:17:40;100318.47;;;25.15;29.07
74637;BME280;63141;54.616;39.754;2022-12-18T17:20:41;100319.34;;;25.16;28.77
74637;BME280;63141;54.616;39.754;2022-12-18T17:23:43;100331.88;;;25.14;28.57
74637;BME280;63141;54.616;39.754;2022-12-18T17:26:46;100334.59;;;25.12;28.11
74637;BME280;63141;54.616;39.754;2022-12-18T17:29:48;100332.16;;;25.07;27.83
74637;BME280;63141;54.616;39.754;2022-12-18T17:32:49;100340.94;;;25.09;27.95
74637;BME280;63141;54.616;39.754;2022-12-18T17:35:51;100337.38;;;25.11;27.21
74637;BME280;63141;54.616;39.754;2022-12-18T17:38:55;100343.63;;;25.09;27.45
74637;BME280;63141;54.616;39.754;2022-12-18T17:41:56;100349.47;;;24.99;27.13